createdAt,value
2022-09-13T16:15:58.047Z,1.57
2022-09-13T16:18:19.744Z,2.13
2022-09-13T16:20:41.030Z,1.80
2022-09-13T16:23:02.335Z,1.90
2022-09-13T16:25:23.636Z,1.60
2022-09-13T16:27:45.693Z,2.23
2022-09-13T16:30:07.833Z,1.70
2022-09-13T16:32:30.324Z,1.40
2022-09-13T16:34:51.450Z,1.73
2022-09-13T16:37:14.754Z,1.80
2022-09-13T16:39:36.443Z,1.60
2022-09-13T16:41:57.464Z,1.50
2022-09-13T16:44:18.799Z,1.60
2022-09-13T16:46:40.011Z,2.20
2022-09-13T16:49:02.561Z,1.90
2022-09-13T16:51:24.412Z,3.60
2022-09-13T16:53:46.058Z,2.00
2022-09-13T16:56:07.768Z,2.63
2022-09-13T16:58:29.896Z,1.70
2022-09-13T17:00:52.086Z,1.80
2022-09-13T17:03:16.249Z,2.27
2022-09-13T17:05:40.586Z,2.37
2022-09-13T17:08:01.936Z,4.23
2022-09-13T17:10:24.365Z,1.80
2022-09-13T17:12:46.127Z,2.03
2022-09-13T17:15:08.045Z,2.30
2022-09-13T17:17:33.881Z,1.63
2022-09-13T17:19:55.336Z,1.77
2022-09-13T17:22:18.425Z,1.90
2022-09-13T17:24:41.242Z,1.80
2022-09-13T17:27:04.817Z,1.80
2022-09-13T17:29:31.002Z,2.00
2022-09-13T17:31:53.194Z,1.80
2022-09-13T17:34:15.710Z,2.10
2022-09-13T17:36:37.538Z,1.80
2022-09-13T17:39:00.162Z,1.80
2022-09-13T17:41:21.471Z,1.90
2022-09-13T17:43:43.571Z,1.97
2022-09-13T17:46:05.532Z,1.80
2022-09-13T17:48:26.635Z,1.80
2022-09-13T17:50:48.127Z,1.80
2022-09-13T17:53:09.104Z,1.70
2022-09-13T17:55:31.823Z,1.80
2022-09-13T17:57:55.392Z,1.83
2022-09-13T18:00:19.661Z,1.70
2022-09-13T18:02:40.957Z,1.90
2022-09-13T18:05:05.759Z,1.93
2022-09-13T18:07:28.076Z,1.70
2022-09-13T18:09:49.185Z,2.87
2022-09-13T18:12:12.135Z,2.03
2022-09-13T18:14:33.244Z,1.90
2022-09-13T18:16:55.794Z,2.07
2022-09-13T18:19:16.868Z,2.30
2022-09-13T18:21:38.268Z,1.80
2022-09-13T18:24:01.506Z,1.67
2022-09-13T18:26:23.491Z,1.80
2022-09-13T18:28:46.172Z,2.20
2022-09-13T18:31:09.125Z,2.00
2022-09-13T18:33:30.474Z,1.73
2022-09-13T18:35:58.844Z,2.00
2022-09-13T18:38:19.834Z,2.00
2022-09-13T18:40:41.301Z,1.80
2022-09-13T18:43:02.459Z,2.00
2022-09-13T18:45:25.034Z,2.30
2022-09-13T18:47:46.542Z,2.40
2022-09-13T18:50:11.509Z,2.30
2022-09-13T18:52:32.835Z,2.20
2022-09-13T18:54:54.088Z,1.93
2022-09-13T18:57:15.144Z,2.10
2022-09-13T18:59:36.339Z,2.20
2022-09-13T19:01:59.001Z,2.03
2022-09-13T19:04:20.941Z,2.10
2022-09-13T19:06:42.583Z,2.13
2022-09-13T19:09:04.329Z,2.33
2022-09-13T19:11:45.978Z,2.20
2022-09-13T19:14:07.969Z,2.33
2022-09-13T19:16:29.275Z,2.27
2022-09-13T19:18:51.969Z,2.10
2022-09-13T19:21:14.605Z,2.30
2022-09-13T19:23:57.945Z,2.70
2022-09-13T19:26:19.125Z,2.00
2022-09-13T19:28:40.675Z,2.50
2022-09-13T19:31:05.903Z,2.40
2022-09-13T19:33:27.694Z,3.13
2022-09-13T19:35:50.315Z,2.97
2022-09-13T19:38:12.832Z,2.70
2022-09-13T19:40:34.320Z,2.70
2022-09-13T19:42:55.459Z,2.60
2022-09-13T19:45:17.379Z,2.47
2022-09-13T19:48:34.771Z,2.80
2022-09-13T19:50:19.663Z,2.70
2022-09-13T19:52:42.363Z,2.60
2022-09-13T19:55:03.562Z,2.90
2022-09-13T19:57:24.840Z,2.70
2022-09-13T19:59:46.098Z,2.70
2022-09-13T20:02:07.601Z,2.60
2022-09-13T20:04:30.129Z,2.90
2022-09-13T20:06:52.374Z,3.00
2022-09-13T20:09:15.858Z,2.60
2022-09-13T20:11:42.198Z,2.60
2022-09-13T20:14:04.137Z,2.40
2022-09-13T20:16:26.940Z,2.80
2022-09-13T20:18:48.365Z,2.80
2022-09-13T20:21:10.577Z,2.80
2022-09-13T20:23:31.919Z,2.70
2022-09-13T20:25:54.575Z,2.57
2022-09-13T20:28:16.700Z,2.60
2022-09-13T20:30:38.130Z,2.93
2022-09-13T20:32:59.128Z,2.80
2022-09-13T20:35:21.441Z,2.70
2022-09-13T20:37:45.572Z,2.80
2022-09-13T20:40:07.252Z,3.00
2022-09-13T20:42:29.784Z,2.90
2022-09-13T20:44:50.982Z,2.77
2022-09-13T20:47:12.990Z,3.00
2022-09-13T20:49:34.062Z,2.70
2022-09-13T20:51:55.371Z,2.70
2022-09-13T20:54:16.823Z,2.47
2022-09-13T20:56:38.244Z,2.80
2022-09-13T20:59:01.057Z,2.77
2022-09-13T21:01:22.743Z,2.87
2022-09-13T21:03:44.190Z,2.97
2022-09-13T21:06:06.289Z,2.67
2022-09-13T21:08:41.610Z,2.40
2022-09-13T21:11:03.613Z,2.80
2022-09-13T21:13:24.492Z,2.57
2022-09-13T21:15:47.032Z,2.43
2022-09-13T21:18:09.422Z,2.53
2022-09-13T21:20:30.783Z,2.67
2022-09-13T21:22:54.293Z,2.83
2022-09-13T21:25:15.778Z,2.70
2022-09-13T21:27:36.941Z,2.37
2022-09-13T21:29:58.217Z,2.87
2022-09-13T21:32:21.030Z,3.20
2022-09-13T21:34:43.209Z,2.90
2022-09-13T21:37:04.079Z,3.20
2022-09-13T21:39:25.437Z,2.90
2022-09-13T21:41:47.476Z,2.80
2022-09-13T21:44:09.187Z,2.90
2022-09-13T21:46:31.071Z,2.70
2022-09-13T21:48:55.092Z,2.90
2022-09-13T21:51:17.185Z,2.87
2022-09-13T21:53:39.345Z,2.80
2022-09-13T21:56:00.734Z,2.97
2022-09-13T21:58:22.152Z,2.80
2022-09-13T22:00:43.541Z,2.87
2022-09-13T22:03:04.608Z,2.80
2022-09-13T22:05:27.305Z,2.80
2022-09-13T22:07:48.300Z,2.80
2022-09-13T22:10:09.933Z,2.97
2022-09-13T22:12:30.822Z,2.90
2022-09-13T22:14:52.206Z,2.83
2022-09-13T22:17:13.560Z,2.77
2022-09-13T22:19:34.689Z,2.80
2022-09-13T22:21:58.995Z,3.03
2022-09-13T22:24:21.375Z,3.00
2022-09-13T22:26:43.197Z,2.97
2022-09-13T22:29:05.002Z,2.80
2022-09-13T22:31:27.209Z,2.77
2022-09-13T22:33:48.871Z,2.70
2022-09-13T22:36:11.422Z,2.60
2022-09-13T22:38:34.256Z,2.63
2022-09-13T22:40:56.458Z,2.60
2022-09-13T22:43:17.752Z,2.60
2022-09-13T22:45:39.160Z,2.77
2022-09-13T22:48:00.285Z,2.60
2022-09-13T22:50:21.488Z,2.40
2022-09-13T22:52:42.569Z,2.40
2022-09-13T22:55:05.362Z,2.50
2022-09-13T22:57:26.579Z,2.40
2022-09-13T22:59:47.890Z,2.50
2022-09-13T23:02:09.697Z,2.63
2022-09-13T23:04:31.082Z,2.93
2022-09-13T23:06:52.398Z,3.00
2022-09-13T23:09:15.427Z,3.03
2022-09-13T23:11:38.591Z,2.80
2022-09-13T23:14:00.909Z,2.90
2022-09-13T23:16:23.170Z,2.87
2022-09-13T23:18:44.781Z,2.63
2022-09-13T23:21:05.872Z,2.60
2022-09-13T23:23:27.172Z,2.43
2022-09-13T23:25:48.429Z,3.03
2022-09-13T23:28:11.081Z,2.50
2022-09-13T23:30:32.508Z,2.70
2022-09-13T23:32:53.757Z,2.70
2022-09-13T23:35:15.127Z,2.70
2022-09-13T23:37:36.521Z,2.70
2022-09-13T23:39:58.256Z,2.43
2022-09-13T23:42:19.416Z,2.60
2022-09-13T23:44:42.061Z,2.83
2022-09-13T23:47:03.369Z,2.47
2022-09-13T23:49:24.488Z,2.80
2022-09-13T23:51:45.805Z,2.57
2022-09-13T23:54:07.265Z,2.67
2022-09-13T23:56:28.972Z,3.00
2022-09-13T23:58:50.330Z,2.50
